Terminal Aerodrome Forecast
Issued by NWS Cleveland, OH

Home | Current Version | Previous Version | Graphics & Text | Print | Product List | Glossary On
Versions: 1 2 3 4 5 6 7 8 9 10 11 12
000
FTUS41 KCLE 231100
TAFYNG
TAF
KYNG 231130Z 2312/2412 13003KT P6SM SCT250
     FM231500 26006KT P6SM SCT250
     FM232300 15003KT P6SM BKN250=

USA.gov is the U.S. government's official web portal to all federal, state and local government web resources and services.